sensor_id;sensor_type;location;lat;lon;timestamp;temperature;humidity
4374;DHT22;2201;51.100;6.814;2023-08-31T00:00:53;13.90;98.20
4374;DHT22;2201;51.100;6.814;2023-08-31T00:03:19;13.80;98.20
4374;DHT22;2201;51.100;6.814;2023-08-31T00:05:46;13.80;98.20
4374;DHT22;2201;51.100;6.814;2023-08-31T00:08:16;13.80;98.20
4374;DHT22;2201;51.100;6.814;2023-08-31T00:10:45;13.80;98.20
4374;DHT22;2201;51.100;6.814;2023-08-31T00:13:12;13.90;98.20
4374;DHT22;2201;51.100;6.814;2023-08-31T00:15:38;13.80;98.20
4374;DHT22;2201;51.100;6.814;2023-08-31T00:18:06;13.80;98.20
4374;DHT22;2201;51.100;6.814;2023-08-31T00:20:33;13.80;98.20
4374;DHT22;2201;51.100;6.814;2023-08-31T00:23:00;13.80;98.20
4374;DHT22;2201;51.100;6.814;2023-08-31T00:25:27;13.80;98.20
4374;DHT22;2201;51.100;6.814;2023-08-31T00:27:56;13.70;98.20
4374;DHT22;2201;51.100;6.814;2023-08-31T00:30:23;13.70;98.20
4374;DHT22;2201;51.100;6.814;2023-08-31T00:32:55;13.70;98.20
4374;DHT22;2201;51.100;6.814;2023-08-31T00:35:25;13.70;98.20
4374;DHT22;2201;51.100;6.814;2023-08-31T00:37:52;13.60;98.20
4374;DHT22;2201;51.100;6.814;2023-08-31T00:40:22;13.60;98.20
4374;DHT22;2201;51.100;6.814;2023-08-31T00:42:49;13.60;98.20
4374;DHT22;2201;51.100;6.814;2023-08-31T00:45:18;13.50;98.20
4374;DHT22;2201;51.100;6.814;2023-08-31T00:47:45;13.50;98.20
4374;DHT22;2201;51.100;6.814;2023-08-31T00:50:14;13.50;98.20
4374;DHT22;2201;51.100;6.814;2023-08-31T00:52:41;13.50;98.20
4374;DHT22;2201;51.100;6.814;2023-08-31T00:55:10;13.50;98.20
4374;DHT22;2201;51.100;6.814;2023-08-31T00:57:38;13.40;98.20
4374;DHT22;2201;51.100;6.814;2023-08-31T01:00:08;13.40;98.20
4374;DHT22;2201;51.100;6.814;2023-08-31T01:02:46;13.40;98.20
4374;DHT22;2201;51.100;6.814;2023-08-31T01:05:29;13.30;98.20
4374;DHT22;2201;51.100;6.814;2023-08-31T01:08:07;13.30;98.20
4374;DHT22;2201;51.100;6.814;2023-08-31T01:10:41;13.30;98.20
4374;DHT22;2201;51.100;6.814;2023-08-31T01:13:12;13.30;98.20
4374;DHT22;2201;51.100;6.814;2023-08-31T01:15:43;13.30;98.20
4374;DHT22;2201;51.100;6.814;2023-08-31T01:18:15;13.20;98.20
4374;DHT22;2201;51.100;6.814;2023-08-31T01:20:56;13.20;98.20
4374;DHT22;2201;51.100;6.814;2023-08-31T01:23:29;13.20;98.20
4374;DHT22;2201;51.100;6.814;2023-08-31T01:26:00;13.20;98.20
4374;DHT22;2201;51.100;6.814;2023-08-31T01:28:27;13.10;98.20
4374;DHT22;2201;51.100;6.814;2023-08-31T01:30:54;13.10;98.20
4374;DHT22;2201;51.100;6.814;2023-08-31T01:33:20;13.10;98.20
4374;DHT22;2201;51.100;6.814;2023-08-31T01:35:50;13.10;98.20
4374;DHT22;2201;51.100;6.814;2023-08-31T01:38:21;13.00;98.20
4374;DHT22;2201;51.100;6.814;2023-08-31T01:41:00;13.00;98.20
4374;DHT22;2201;51.100;6.814;2023-08-31T01:43:31;13.00;98.20
4374;DHT22;2201;51.100;6.814;2023-08-31T01:45:59;13.00;98.20
4374;DHT22;2201;51.100;6.814;2023-08-31T01:48:26;12.90;98.20
4374;DHT22;2201;51.100;6.814;2023-08-31T01:50:53;12.90;98.20
4374;DHT22;2201;51.100;6.814;2023-08-31T01:53:20;12.90;98.20
4374;DHT22;2201;51.100;6.814;2023-08-31T01:55:48;12.90;98.20
4374;DHT22;2201;51.100;6.814;2023-08-31T01:58:16;12.90;98.20
4374;DHT22;2201;51.100;6.814;2023-08-31T02:00:43;12.80;98.20
4374;DHT22;2201;51.100;6.814;2023-08-31T02:03:10;12.80;98.20
4374;DHT22;2201;51.100;6.814;2023-08-31T02:05:36;12.80;98.20
4374;DHT22;2201;51.100;6.814;2023-08-31T02:08:03;12.80;98.20
4374;DHT22;2201;51.100;6.814;2023-08-31T02:10:30;12.80;98.20
4374;DHT22;2201;51.100;6.814;2023-08-31T02:12:57;12.70;98.20
4374;DHT22;2201;51.100;6.814;2023-08-31T02:15:25;12.70;98.20
4374;DHT22;2201;51.100;6.814;2023-08-31T02:17:53;12.70;98.20
4374;DHT22;2201;51.100;6.814;2023-08-31T02:20:20;12.70;98.20
4374;DHT22;2201;51.100;6.814;2023-08-31T02:22:46;12.70;98.20
4374;DHT22;2201;51.100;6.814;2023-08-31T02:25:14;12.70;98.20
4374;DHT22;2201;51.100;6.814;2023-08-31T02:27:42;12.70;98.20
4374;DHT22;2201;51.100;6.814;2023-08-31T02:30:09;12.60;98.20
4374;DHT22;2201;51.100;6.814;2023-08-31T02:32:37;12.60;98.20
4374;DHT22;2201;51.100;6.814;2023-08-31T02:35:04;12.60;98.20
4374;DHT22;2201;51.100;6.814;2023-08-31T02:37:32;12.60;98.20
4374;DHT22;2201;51.100;6.814;2023-08-31T02:39:59;12.60;98.20
4374;DHT22;2201;51.100;6.814;2023-08-31T02:42:26;12.50;98.20
4374;DHT22;2201;51.100;6.814;2023-08-31T02:44:52;12.50;98.20
4374;DHT22;2201;51.100;6.814;2023-08-31T02:47:20;12.50;98.20
4374;DHT22;2201;51.100;6.814;2023-08-31T02:49:48;12.40;98.20
4374;DHT22;2201;51.100;6.814;2023-08-31T02:52:14;12.40;98.20
4374;DHT22;2201;51.100;6.814;2023-08-31T02:54:41;12.40;98.20
4374;DHT22;2201;51.100;6.814;2023-08-31T02:57:08;12.40;98.20
4374;DHT22;2201;51.100;6.814;2023-08-31T02:59:35;12.40;98.20
4374;DHT22;2201;51.100;6.814;2023-08-31T03:02:02;12.40;98.20
4374;DHT22;2201;51.100;6.814;2023-08-31T03:04:29;12.40;98.20
4374;DHT22;2201;51.100;6.814;2023-08-31T03:06:57;12.40;98.20
4374;DHT22;2201;51.100;6.814;2023-08-31T03:09:24;12.40;98.20
4374;DHT22;2201;51.100;6.814;2023-08-31T03:11:51;12.40;98.20
4374;DHT22;2201;51.100;6.814;2023-08-31T03:14:17;12.30;98.20
4374;DHT22;2201;51.100;6.814;2023-08-31T03:16:44;12.30;98.20
4374;DHT22;2201;51.100;6.814;2023-08-31T03:19:11;12.30;98.20
4374;DHT22;2201;51.100;6.814;2023-08-31T03:21:38;12.30;98.20
4374;DHT22;2201;51.100;6.814;2023-08-31T03:24:07;12.30;98.20
4374;DHT22;2201;51.100;6.814;2023-08-31T03:26:34;12.40;98.20
4374;DHT22;2201;51.100;6.814;2023-08-31T03:29:01;12.40;98.20
4374;DHT22;2201;51.100;6.814;2023-08-31T03:31:29;12.40;98.20
4374;DHT22;2201;51.100;6.814;2023-08-31T03:33:56;12.40;98.20
4374;DHT22;2201;51.100;6.814;2023-08-31T03:36:23;12.40;98.20
4374;DHT22;2201;51.100;6.814;2023-08-31T03:38:50;12.40;98.20
4374;DHT22;2201;51.100;6.814;2023-08-31T03:41:33;12.40;98.20
4374;DHT22;2201;51.100;6.814;2023-08-31T03:44:01;12.50;98.20
4374;DHT22;2201;51.100;6.814;2023-08-31T03:46:28;12.50;98.20
4374;DHT22;2201;51.100;6.814;2023-08-31T03:48:54;12.50;98.20
4374;DHT22;2201;51.100;6.814;2023-08-31T03:51:21;12.50;98.20
4374;DHT22;2201;51.100;6.814;2023-08-31T03:53:48;12.60;98.20
4374;DHT22;2201;51.100;6.814;2023-08-31T03:56:15;12.60;98.20
4374;DHT22;2201;51.100;6.814;2023-08-31T03:58:43;12.60;98.20
4374;DHT22;2201;51.100;6.814;2023-08-31T04:01:10;12.60;98.20
4374;DHT22;2201;51.100;6.814;2023-08-31T04:03:38;12.60;98.20
4374;DHT22;2201;51.100;6.814;2023-08-31T04:06:05;12.60;98.20
4374;DHT22;2201;51.100;6.814;2023-08-31T04:08:31;12.60;98.20
4374;DHT22;2201;51.100;6.814;2023-08-31T04:10:58;12.60;98.20
4374;DHT22;2201;51.100;6.814;2023-08-31T04:13:25;12.60;98.20
4374;DHT22;2201;51.100;6.814;2023-08-31T04:15:53;12.60;98.20
4374;DHT22;2201;51.100;6.814;2023-08-31T04:18:21;12.60;98.20
4374;DHT22;2201;51.100;6.814;2023-08-31T04:20:49;12.60;98.20
4374;DHT22;2201;51.100;6.814;2023-08-31T04:23:21;12.60;98.20
4374;DHT22;2201;51.100;6.814;2023-08-31T04:25:48;12.60;98.20
4374;DHT22;2201;51.100;6.814;2023-08-31T04:28:16;12.60;98.20
4374;DHT22;2201;51.100;6.814;2023-08-31T04:30:43;12.60;98.20
4374;DHT22;2201;51.100;6.814;2023-08-31T04:33:11;12.50;98.20
4374;DHT22;2201;51.100;6.814;2023-08-31T04:35:39;12.50;98.20
4374;DHT22;2201;51.100;6.814;2023-08-31T04:38:05;12.50;98.20
4374;DHT22;2201;51.100;6.814;2023-08-31T04:40:32;12.50;98.20
4374;DHT22;2201;51.100;6.814;2023-08-31T04:42:59;12.50;98.20
4374;DHT22;2201;51.100;6.814;2023-08-31T04:45:26;12.40;98.20
4374;DHT22;2201;51.100;6.814;2023-08-31T04:47:53;12.40;98.20
4374;DHT22;2201;51.100;6.814;2023-08-31T04:50:21;12.40;98.20
4374;DHT22;2201;51.100;6.814;2023-08-31T04:52:48;12.40;98.20
4374;DHT22;2201;51.100;6.814;2023-08-31T04:55:15;12.40;98.20
4374;DHT22;2201;51.100;6.814;2023-08-31T04:57:42;12.40;98.20
4374;DHT22;2201;51.100;6.814;2023-08-31T05:00:09;12.30;98.20
4374;DHT22;2201;51.100;6.814;2023-08-31T05:02:37;12.30;98.20
4374;DHT22;2201;51.100;6.814;2023-08-31T05:05:04;12.30;98.20
4374;DHT22;2201;51.100;6.814;2023-08-31T05:07:33;12.30;98.20
4374;DHT22;2201;51.100;6.814;2023-08-31T05:09:59;12.30;98.20
4374;DHT22;2201;51.100;6.814;2023-08-31T05:12:26;12.30;98.20
4374;DHT22;2201;51.100;6.814;2023-08-31T05:14:53;12.30;98.20
4374;DHT22;2201;51.100;6.814;2023-08-31T05:17:22;12.30;98.20
4374;DHT22;2201;51.100;6.814;2023-08-31T05:19:49;12.30;98.20
4374;DHT22;2201;51.100;6.814;2023-08-31T05:22:38;12.30;98.20
4374;DHT22;2201;51.100;6.814;2023-08-31T05:25:06;12.30;98.20
4374;DHT22;2201;51.100;6.814;2023-08-31T05:27:33;12.30;98.20
4374;DHT22;2201;51.100;6.814;2023-08-31T05:30:01;12.30;98.20
4374;DHT22;2201;51.100;6.814;2023-08-31T05:32:29;12.30;98.20
4374;DHT22;2201;51.100;6.814;2023-08-31T05:34:59;12.30;98.20
4374;DHT22;2201;51.100;6.814;2023-08-31T05:37:32;12.30;98.20
4374;DHT22;2201;51.100;6.814;2023-08-31T05:40:05;12.40;98.20
4374;DHT22;2201;51.100;6.814;2023-08-31T05:42:35;12.40;98.20
4374;DHT22;2201;51.100;6.814;2023-08-31T05:45:04;12.50;98.20
4374;DHT22;2201;51.100;6.814;2023-08-31T05:47:32;12.50;98.20
4374;DHT22;2201;51.100;6.814;2023-08-31T05:50:00;12.60;98.20
4374;DHT22;2201;51.100;6.814;2023-08-31T05:52:28;12.60;98.20
4374;DHT22;2201;51.100;6.814;2023-08-31T05:54:56;12.70;98.20
4374;DHT22;2201;51.100;6.814;2023-08-31T05:57:26;12.80;98.20
4374;DHT22;2201;51.100;6.814;2023-08-31T05:59:55;12.90;98.20
4374;DHT22;2201;51.100;6.814;2023-08-31T06:02:33;13.00;98.20
4374;DHT22;2201;51.100;6.814;2023-08-31T06:05:08;13.20;98.20
4374;DHT22;2201;51.100;6.814;2023-08-31T06:07:43;13.30;98.20
4374;DHT22;2201;51.100;6.814;2023-08-31T06:10:34;13.40;98.20
4374;DHT22;2201;51.100;6.814;2023-08-31T06:13:30;13.60;98.20
4374;DHT22;2201;51.100;6.814;2023-08-31T06:16:33;13.80;98.20
4374;DHT22;2201;51.100;6.814;2023-08-31T06:19:13;13.90;98.20
4374;DHT22;2201;51.100;6.814;2023-08-31T06:25:08;14.30;98.20
4374;DHT22;2201;51.100;6.814;2023-08-31T06:27:39;14.50;98.20
4374;DHT22;2201;51.100;6.814;2023-08-31T06:30:09;14.60;98.20
4374;DHT22;2201;51.100;6.814;2023-08-31T06:32:37;14.70;98.20
4374;DHT22;2201;51.100;6.814;2023-08-31T06:35:05;14.90;98.20
4374;DHT22;2201;51.100;6.814;2023-08-31T06:37:33;15.10;98.20
4374;DHT22;2201;51.100;6.814;2023-08-31T06:40:00;15.20;98.20
4374;DHT22;2201;51.100;6.814;2023-08-31T06:42:27;15.30;98.20
4374;DHT22;2201;51.100;6.814;2023-08-31T06:44:54;15.50;98.20
4374;DHT22;2201;51.100;6.814;2023-08-31T06:47:23;15.60;98.20
4374;DHT22;2201;51.100;6.814;2023-08-31T06:49:50;15.70;98.20
4374;DHT22;2201;51.100;6.814;2023-08-31T06:52:18;15.90;98.20
4374;DHT22;2201;51.100;6.814;2023-08-31T06:54:45;16.00;98.20
4374;DHT22;2201;51.100;6.814;2023-08-31T06:57:12;16.10;98.20
4374;DHT22;2201;51.100;6.814;2023-08-31T06:59:40;16.20;98.20
4374;DHT22;2201;51.100;6.814;2023-08-31T07:02:07;16.40;98.20
4374;DHT22;2201;51.100;6.814;2023-08-31T07:04:35;16.50;98.20
4374;DHT22;2201;51.100;6.814;2023-08-31T07:07:02;16.60;98.20
4374;DHT22;2201;51.100;6.814;2023-08-31T07:09:30;16.60;98.20
4374;DHT22;2201;51.100;6.814;2023-08-31T07:11:59;16.70;98.20
4374;DHT22;2201;51.100;6.814;2023-08-31T07:14:28;16.80;98.20
4374;DHT22;2201;51.100;6.814;2023-08-31T07:16:55;16.90;98.20
4374;DHT22;2201;51.100;6.814;2023-08-31T07:19:22;17.10;98.20
4374;DHT22;2201;51.100;6.814;2023-08-31T07:21:50;17.30;98.20
4374;DHT22;2201;51.100;6.814;2023-08-31T07:24:18;17.40;98.20
4374;DHT22;2201;51.100;6.814;2023-08-31T07:26:45;17.60;98.20
4374;DHT22;2201;51.100;6.814;2023-08-31T07:29:12;17.60;98.20
4374;DHT22;2201;51.100;6.814;2023-08-31T07:31:39;17.70;98.20
4374;DHT22;2201;51.100;6.814;2023-08-31T07:34:06;17.80;98.20
4374;DHT22;2201;51.100;6.814;2023-08-31T07:36:33;17.90;98.20
4374;DHT22;2201;51.100;6.814;2023-08-31T07:39:04;18.00;98.20
4374;DHT22;2201;51.100;6.814;2023-08-31T07:41:34;18.00;98.20
4374;DHT22;2201;51.100;6.814;2023-08-31T07:44:04;18.00;98.20
4374;DHT22;2201;51.100;6.814;2023-08-31T07:46:31;18.20;98.20
4374;DHT22;2201;51.100;6.814;2023-08-31T07:48:59;18.40;98.20
4374;DHT22;2201;51.100;6.814;2023-08-31T07:51:27;18.40;98.20
4374;DHT22;2201;51.100;6.814;2023-08-31T07:53:54;18.50;98.20
4374;DHT22;2201;51.100;6.814;2023-08-31T07:56:24;18.60;98.20
4374;DHT22;2201;51.100;6.814;2023-08-31T07:58:54;18.60;98.20
4374;DHT22;2201;51.100;6.814;2023-08-31T08:01:21;18.70;98.20
4374;DHT22;2201;51.100;6.814;2023-08-31T08:03:49;18.70;98.20
4374;DHT22;2201;51.100;6.814;2023-08-31T08:28:36;19.60;98.20
4374;DHT22;2201;51.100;6.814;2023-08-31T08:31:03;19.50;98.20
4374;DHT22;2201;51.100;6.814;2023-08-31T08:33:31;19.50;98.20
4374;DHT22;2201;51.100;6.814;2023-08-31T08:35:59;19.50;98.20
4374;DHT22;2201;51.100;6.814;2023-08-31T08:38:26;19.40;98.20
4374;DHT22;2201;51.100;6.814;2023-08-31T08:40:53;19.30;98.20
4374;DHT22;2201;51.100;6.814;2023-08-31T08:43:25;19.40;98.20
4374;DHT22;2201;51.100;6.814;2023-08-31T08:45:54;19.40;98.20
4374;DHT22;2201;51.100;6.814;2023-08-31T08:48:21;19.40;98.20
4374;DHT22;2201;51.100;6.814;2023-08-31T08:50:49;19.30;98.20
4374;DHT22;2201;51.100;6.814;2023-08-31T08:53:17;19.40;98.20
4374;DHT22;2201;51.100;6.814;2023-08-31T08:55:44;19.40;98.20
4374;DHT22;2201;51.100;6.814;2023-08-31T08:58:12;19.50;98.20
4374;DHT22;2201;51.100;6.814;2023-08-31T09:00:40;19.60;98.20
4374;DHT22;2201;51.100;6.814;2023-08-31T09:03:09;19.80;98.20
4374;DHT22;2201;51.100;6.814;2023-08-31T09:05:36;20.00;98.20
4374;DHT22;2201;51.100;6.814;2023-08-31T09:08:05;20.20;98.20
4374;DHT22;2201;51.100;6.814;2023-08-31T09:10:36;20.40;98.20
4374;DHT22;2201;51.100;6.814;2023-08-31T09:13:07;20.70;98.20
4374;DHT22;2201;51.100;6.814;2023-08-31T09:15:44;21.00;98.20
4374;DHT22;2201;51.100;6.814;2023-08-31T09:18:23;21.20;98.20
4374;DHT22;2201;51.100;6.814;2023-08-31T09:20:51;21.40;98.20
4374;DHT22;2201;51.100;6.814;2023-08-31T09:23:22;21.50;98.20
4374;DHT22;2201;51.100;6.814;2023-08-31T09:25:50;21.70;97.40
4374;DHT22;2201;51.100;6.814;2023-08-31T09:28:20;21.90;97.10
4374;DHT22;2201;51.100;6.814;2023-08-31T09:30:53;22.00;95.10
4374;DHT22;2201;51.100;6.814;2023-08-31T09:33:31;22.00;95.90
4374;DHT22;2201;51.100;6.814;2023-08-31T09:36:00;21.90;93.80
4374;DHT22;2201;51.100;6.814;2023-08-31T09:38:29;21.90;95.60
4374;DHT22;2201;51.100;6.814;2023-08-31T09:41:03;22.10;95.50
4374;DHT22;2201;51.100;6.814;2023-08-31T09:43:32;22.20;95.60
4374;DHT22;2201;51.100;6.814;2023-08-31T09:46:01;22.40;93.90
4374;DHT22;2201;51.100;6.814;2023-08-31T09:48:31;22.60;93.90
4374;DHT22;2201;51.100;6.814;2023-08-31T09:51:02;22.80;93.70
4374;DHT22;2201;51.100;6.814;2023-08-31T09:53:31;22.80;93.40
4374;DHT22;2201;51.100;6.814;2023-08-31T09:55:59;22.90;93.80
4374;DHT22;2201;51.100;6.814;2023-08-31T09:58:29;23.00;92.00
4374;DHT22;2201;51.100;6.814;2023-08-31T10:00:57;22.80;92.60
4374;DHT22;2201;51.100;6.814;2023-08-31T10:03:26;22.90;92.00
4374;DHT22;2201;51.100;6.814;2023-08-31T10:05:58;22.80;92.60
4374;DHT22;2201;51.100;6.814;2023-08-31T10:08:29;22.90;92.30
4374;DHT22;2201;51.100;6.814;2023-08-31T10:10:59;22.90;93.20
4374;DHT22;2201;51.100;6.814;2023-08-31T10:13:31;23.00;91.60
4374;DHT22;2201;51.100;6.814;2023-08-31T10:16:05;23.00;91.00
4374;DHT22;2201;51.100;6.814;2023-08-31T10:18:36;23.20;92.10
4374;DHT22;2201;51.100;6.814;2023-08-31T10:21:05;23.50;90.70
4374;DHT22;2201;51.100;6.814;2023-08-31T10:23:32;23.70;90.40
4374;DHT22;2201;51.100;6.814;2023-08-31T10:26:02;23.70;90.00
4374;DHT22;2201;51.100;6.814;2023-08-31T10:28:39;23.70;89.90
4374;DHT22;2201;51.100;6.814;2023-08-31T10:31:15;23.70;88.20
4374;DHT22;2201;51.100;6.814;2023-08-31T10:34:05;23.40;89.00
4374;DHT22;2201;51.100;6.814;2023-08-31T10:36:45;23.20;90.50
4374;DHT22;2201;51.100;6.814;2023-08-31T10:39:18;23.00;89.70
4374;DHT22;2201;51.100;6.814;2023-08-31T10:42:03;23.00;89.10
4374;DHT22;2201;51.100;6.814;2023-08-31T10:44:50;23.10;91.10
4374;DHT22;2201;51.100;6.814;2023-08-31T10:47:40;23.40;89.30
4374;DHT22;2201;51.100;6.814;2023-08-31T10:50:19;23.80;89.30
4374;DHT22;2201;51.100;6.814;2023-08-31T10:53:08;23.80;88.30
4374;DHT22;2201;51.100;6.814;2023-08-31T10:55:57;23.80;88.60
4374;DHT22;2201;51.100;6.814;2023-08-31T10:58:32;23.60;87.50
4374;DHT22;2201;51.100;6.814;2023-08-31T11:01:05;23.30;89.80
4374;DHT22;2201;51.100;6.814;2023-08-31T11:03:33;23.10;89.70
4374;DHT22;2201;51.100;6.814;2023-08-31T11:06:21;23.20;90.20
4374;DHT22;2201;51.100;6.814;2023-08-31T11:09:22;23.30;90.20
4374;DHT22;2201;51.100;6.814;2023-08-31T11:11:49;23.80;91.00
4374;DHT22;2201;51.100;6.814;2023-08-31T11:14:27;24.20;91.00
4374;DHT22;2201;51.100;6.814;2023-08-31T11:16:55;24.50;82.70
4374;DHT22;2201;51.100;6.814;2023-08-31T11:19:50;24.60;85.40
4374;DHT22;2201;51.100;6.814;2023-08-31T11:22:21;24.70;84.90
4374;DHT22;2201;51.100;6.814;2023-08-31T11:24:57;24.70;83.80
4374;DHT22;2201;51.100;6.814;2023-08-31T11:27:26;24.50;83.90
4374;DHT22;2201;51.100;6.814;2023-08-31T11:29:53;24.40;85.40
4374;DHT22;2201;51.100;6.814;2023-08-31T11:32:23;24.60;84.20
4374;DHT22;2201;51.100;6.814;2023-08-31T11:35:05;24.80;86.00
4374;DHT22;2201;51.100;6.814;2023-08-31T11:37:37;24.90;83.00
4374;DHT22;2201;51.100;6.814;2023-08-31T11:40:15;25.00;83.10
4374;DHT22;2201;51.100;6.814;2023-08-31T11:42:48;25.20;83.30
4374;DHT22;2201;51.100;6.814;2023-08-31T11:45:39;25.30;82.20
4374;DHT22;2201;51.100;6.814;2023-08-31T11:48:14;25.50;83.40
4374;DHT22;2201;51.100;6.814;2023-08-31T11:51:01;25.80;81.10
4374;DHT22;2201;51.100;6.814;2023-08-31T11:53:33;25.80;79.80
4374;DHT22;2201;51.100;6.814;2023-08-31T11:56:11;25.70;80.20
4374;DHT22;2201;51.100;6.814;2023-08-31T11:58:59;25.40;78.80
4374;DHT22;2201;51.100;6.814;2023-08-31T12:01:38;25.30;82.70
4374;DHT22;2201;51.100;6.814;2023-08-31T12:04:16;25.40;81.60
4374;DHT22;2201;51.100;6.814;2023-08-31T12:07:01;25.50;80.20
4374;DHT22;2201;51.100;6.814;2023-08-31T12:09:31;25.50;79.50
4374;DHT22;2201;51.100;6.814;2023-08-31T12:12:02;25.60;79.00
4374;DHT22;2201;51.100;6.814;2023-08-31T12:14:36;25.90;78.80
4374;DHT22;2201;51.100;6.814;2023-08-31T12:17:07;25.90;77.00
4374;DHT22;2201;51.100;6.814;2023-08-31T12:19:38;26.10;78.10
4374;DHT22;2201;51.100;6.814;2023-08-31T12:24:58;26.30;78.30
4374;DHT22;2201;51.100;6.814;2023-08-31T12:27:31;26.50;79.30
4374;DHT22;2201;51.100;6.814;2023-08-31T12:29:59;26.40;77.00
4374;DHT22;2201;51.100;6.814;2023-08-31T12:32:27;26.00;77.30
4374;DHT22;2201;51.100;6.814;2023-08-31T12:34:54;25.80;79.30
4374;DHT22;2201;51.100;6.814;2023-08-31T12:37:21;25.80;79.50
4374;DHT22;2201;51.100;6.814;2023-08-31T12:39:48;26.00;79.70
4374;DHT22;2201;51.100;6.814;2023-08-31T12:42:17;26.10;79.40
4374;DHT22;2201;51.100;6.814;2023-08-31T12:44:45;26.30;79.80
4374;DHT22;2201;51.100;6.814;2023-08-31T12:47:12;26.40;79.30
4374;DHT22;2201;51.100;6.814;2023-08-31T12:49:39;26.50;79.60
4374;DHT22;2201;51.100;6.814;2023-08-31T12:52:06;26.40;79.20
4374;DHT22;2201;51.100;6.814;2023-08-31T12:54:33;26.30;77.40
4374;DHT22;2201;51.100;6.814;2023-08-31T12:56:59;26.30;78.60
4374;DHT22;2201;51.100;6.814;2023-08-31T12:59:26;26.20;78.30
4374;DHT22;2201;51.100;6.814;2023-08-31T13:01:54;26.20;78.00
4374;DHT22;2201;51.100;6.814;2023-08-31T13:04:22;26.30;78.90
4374;DHT22;2201;51.100;6.814;2023-08-31T13:06:50;26.40;79.80
4374;DHT22;2201;51.100;6.814;2023-08-31T13:09:16;26.40;80.10
4374;DHT22;2201;51.100;6.814;2023-08-31T13:13:07;26.50;80.30
4374;DHT22;2201;51.100;6.814;2023-08-31T13:15:15;26.60;80.00
4374;DHT22;2201;51.100;6.814;2023-08-31T13:18:06;26.80;78.30
4374;DHT22;2201;51.100;6.814;2023-08-31T13:20:38;26.70;78.40
4374;DHT22;2201;51.100;6.814;2023-08-31T13:23:06;26.50;79.80
4374;DHT22;2201;51.100;6.814;2023-08-31T13:25:33;26.50;80.50
4374;DHT22;2201;51.100;6.814;2023-08-31T13:27:59;26.60;81.30
4374;DHT22;2201;51.100;6.814;2023-08-31T13:30:26;26.70;80.30
4374;DHT22;2201;51.100;6.814;2023-08-31T13:32:55;26.80;77.10
4374;DHT22;2201;51.100;6.814;2023-08-31T13:35:27;26.90;79.40
4374;DHT22;2201;51.100;6.814;2023-08-31T13:37:54;26.90;80.70
4374;DHT22;2201;51.100;6.814;2023-08-31T13:40:21;26.70;80.30
4374;DHT22;2201;51.100;6.814;2023-08-31T13:43:11;26.60;80.10
4374;DHT22;2201;51.100;6.814;2023-08-31T13:45:58;26.50;81.30
4374;DHT22;2201;51.100;6.814;2023-08-31T13:48:26;26.60;81.00
4374;DHT22;2201;51.100;6.814;2023-08-31T13:50:55;26.50;80.00
4374;DHT22;2201;51.100;6.814;2023-08-31T13:53:21;26.50;79.60
4374;DHT22;2201;51.100;6.814;2023-08-31T13:55:48;26.50;81.20
4374;DHT22;2201;51.100;6.814;2023-08-31T13:58:15;26.50;78.00
4374;DHT22;2201;51.100;6.814;2023-08-31T14:00:42;26.60;79.30
4374;DHT22;2201;51.100;6.814;2023-08-31T14:03:09;26.60;79.30
4374;DHT22;2201;51.100;6.814;2023-08-31T14:05:47;26.60;79.00
4374;DHT22;2201;51.100;6.814;2023-08-31T14:08:15;26.40;76.60
4374;DHT22;2201;51.100;6.814;2023-08-31T14:10:42;26.30;78.20
4374;DHT22;2201;51.100;6.814;2023-08-31T14:13:09;26.30;79.50
4374;DHT22;2201;51.100;6.814;2023-08-31T14:15:36;26.40;78.60
4374;DHT22;2201;51.100;6.814;2023-08-31T14:18:09;26.30;77.70
4374;DHT22;2201;51.100;6.814;2023-08-31T14:20:36;26.20;78.40
4374;DHT22;2201;51.100;6.814;2023-08-31T14:23:03;26.00;78.90
4374;DHT22;2201;51.100;6.814;2023-08-31T14:25:35;25.60;78.70
4374;DHT22;2201;51.100;6.814;2023-08-31T14:28:03;25.30;80.00
4374;DHT22;2201;51.100;6.814;2023-08-31T14:30:30;25.20;81.50
4374;DHT22;2201;51.100;6.814;2023-08-31T14:32:57;25.20;81.20
4374;DHT22;2201;51.100;6.814;2023-08-31T14:35:24;25.20;78.90
4374;DHT22;2201;51.100;6.814;2023-08-31T14:37:51;25.20;77.30
4374;DHT22;2201;51.100;6.814;2023-08-31T14:40:18;25.30;76.80
4374;DHT22;2201;51.100;6.814;2023-08-31T14:42:46;25.30;78.00
4374;DHT22;2201;51.100;6.814;2023-08-31T14:45:13;25.20;78.50
4374;DHT22;2201;51.100;6.814;2023-08-31T14:47:40;25.10;79.20
4374;DHT22;2201;51.100;6.814;2023-08-31T14:50:07;24.90;79.90
4374;DHT22;2201;51.100;6.814;2023-08-31T14:52:34;24.50;80.10
4374;DHT22;2201;51.100;6.814;2023-08-31T14:55:04;24.30;80.40
4374;DHT22;2201;51.100;6.814;2023-08-31T14:57:31;24.10;81.60
4374;DHT22;2201;51.100;6.814;2023-08-31T14:59:59;23.90;82.90
4374;DHT22;2201;51.100;6.814;2023-08-31T15:02:27;23.80;83.00
4374;DHT22;2201;51.100;6.814;2023-08-31T15:04:54;23.70;83.60
4374;DHT22;2201;51.100;6.814;2023-08-31T15:07:20;23.50;84.40
4374;DHT22;2201;51.100;6.814;2023-08-31T15:09:47;23.40;84.40
4374;DHT22;2201;51.100;6.814;2023-08-31T15:12:15;23.40;85.60
4374;DHT22;2201;51.100;6.814;2023-08-31T15:14:42;23.50;85.60
4374;DHT22;2201;51.100;6.814;2023-08-31T15:17:11;23.50;85.20
4374;DHT22;2201;51.100;6.814;2023-08-31T15:19:39;23.60;85.60
4374;DHT22;2201;51.100;6.814;2023-08-31T15:22:06;23.60;84.20
4374;DHT22;2201;51.100;6.814;2023-08-31T15:24:33;23.60;83.30
4374;DHT22;2201;51.100;6.814;2023-08-31T15:27:02;23.70;82.50
4374;DHT22;2201;51.100;6.814;2023-08-31T15:29:29;23.80;82.60
4374;DHT22;2201;51.100;6.814;2023-08-31T15:31:57;23.80;81.40
4374;DHT22;2201;51.100;6.814;2023-08-31T15:34:26;23.70;81.10
4374;DHT22;2201;51.100;6.814;2023-08-31T15:36:54;23.60;83.70
4374;DHT22;2201;51.100;6.814;2023-08-31T15:39:21;23.50;83.50
4374;DHT22;2201;51.100;6.814;2023-08-31T15:41:49;23.40;83.40
4374;DHT22;2201;51.100;6.814;2023-08-31T15:44:16;23.30;83.50
4374;DHT22;2201;51.100;6.814;2023-08-31T15:46:46;23.10;83.70
4374;DHT22;2201;51.100;6.814;2023-08-31T15:49:14;23.00;83.50
4374;DHT22;2201;51.100;6.814;2023-08-31T15:51:42;22.90;83.40
4374;DHT22;2201;51.100;6.814;2023-08-31T15:54:10;22.70;84.20
4374;DHT22;2201;51.100;6.814;2023-08-31T15:56:37;22.60;84.90
4374;DHT22;2201;51.100;6.814;2023-08-31T15:59:04;22.50;85.30
4374;DHT22;2201;51.100;6.814;2023-08-31T16:01:38;22.50;86.50
4374;DHT22;2201;51.100;6.814;2023-08-31T16:04:09;22.50;85.80
4374;DHT22;2201;51.100;6.814;2023-08-31T16:06:36;22.50;86.10
4374;DHT22;2201;51.100;6.814;2023-08-31T16:09:06;22.50;86.80
4374;DHT22;2201;51.100;6.814;2023-08-31T16:11:34;22.50;86.20
4374;DHT22;2201;51.100;6.814;2023-08-31T16:14:02;22.50;86.90
4374;DHT22;2201;51.100;6.814;2023-08-31T16:16:30;22.50;86.80
4374;DHT22;2201;51.100;6.814;2023-08-31T16:19:01;22.60;87.00
4374;DHT22;2201;51.100;6.814;2023-08-31T16:21:30;22.60;87.30
4374;DHT22;2201;51.100;6.814;2023-08-31T16:23:58;22.60;87.00
4374;DHT22;2201;51.100;6.814;2023-08-31T16:26:28;22.50;87.60
4374;DHT22;2201;51.100;6.814;2023-08-31T16:28:55;22.40;87.70
4374;DHT22;2201;51.100;6.814;2023-08-31T16:31:26;22.40;88.40
4374;DHT22;2201;51.100;6.814;2023-08-31T16:33:53;22.40;88.20
4374;DHT22;2201;51.100;6.814;2023-08-31T16:36:21;22.30;89.60
4374;DHT22;2201;51.100;6.814;2023-08-31T16:38:50;22.40;88.70
4374;DHT22;2201;51.100;6.814;2023-08-31T16:41:17;22.40;88.50
4374;DHT22;2201;51.100;6.814;2023-08-31T16:43:47;22.40;89.00
4374;DHT22;2201;51.100;6.814;2023-08-31T16:46:14;22.40;88.90
4374;DHT22;2201;51.100;6.814;2023-08-31T16:48:42;22.30;88.90